sensor_id;sensor_type;location;lat;lon;timestamp;P1;durP1;ratioP1;P2;durP2;ratioP2
23812;SDS011;12087;45.190;5.688;2024-02-15T00:03:40;8.43;;;5.70;;
23812;SDS011;12087;45.190;5.688;2024-02-15T00:09:03;9.13;;;4.97;;
23812;SDS011;12087;45.190;5.688;2024-02-15T00:14:25;7.93;;;5.40;;
23812;SDS011;12087;45.190;5.688;2024-02-15T00:19:50;10.88;;;5.70;;
23812;SDS011;12087;45.190;5.688;2024-02-15T00:25:12;7.93;;;5.30;;
23812;SDS011;12087;45.190;5.688;2024-02-15T00:30:34;11.32;;;6.57;;
23812;SDS011;12087;45.190;5.688;2024-02-15T00:35:58;19.10;;;5.50;;
23812;SDS011;12087;45.190;5.688;2024-02-15T00:41:23;8.52;;;5.00;;
23812;SDS011;12087;45.190;5.688;2024-02-15T00:46:45;7.18;;;4.60;;
23812;SDS011;12087;45.190;5.688;2024-02-15T00:52:09;7.68;;;5.10;;
23812;SDS011;12087;45.190;5.688;2024-02-15T00:57:31;10.82;;;5.38;;
23812;SDS011;12087;45.190;5.688;2024-02-15T01:02:53;8.43;;;4.88;;
23812;SDS011;12087;45.190;5.688;2024-02-15T01:08:17;7.03;;;4.63;;
23812;SDS011;12087;45.190;5.688;2024-02-15T01:13:40;5.90;;;3.78;;
23812;SDS011;12087;45.190;5.688;2024-02-15T01:19:02;5.72;;;3.60;;
23812;SDS011;12087;45.190;5.688;2024-02-15T01:24:26;11.07;;;4.28;;
23812;SDS011;12087;45.190;5.688;2024-02-15T01:29:50;6.18;;;3.58;;
23812;SDS011;12087;45.190;5.688;2024-02-15T01:35:12;7.90;;;4.18;;
23812;SDS011;12087;45.190;5.688;2024-02-15T01:40:36;7.22;;;4.75;;
23812;SDS011;12087;45.190;5.688;2024-02-15T01:45:58;4.97;;;3.83;;
23812;SDS011;12087;45.190;5.688;2024-02-15T01:51:23;10.25;;;4.20;;
23812;SDS011;12087;45.190;5.688;2024-02-15T01:56:48;8.35;;;4.90;;
23812;SDS011;12087;45.190;5.688;2024-02-15T02:02:11;8.38;;;5.82;;
23812;SDS011;12087;45.190;5.688;2024-02-15T02:07:36;9.82;;;6.18;;
23812;SDS011;12087;45.190;5.688;2024-02-15T02:13:00;10.13;;;5.53;;
23812;SDS011;12087;45.190;5.688;2024-02-15T02:18:23;11.50;;;5.45;;
23812;SDS011;12087;45.190;5.688;2024-02-15T02:23:46;8.27;;;5.38;;
23812;SDS011;12087;45.190;5.688;2024-02-15T02:29:15;9.77;;;5.15;;
23812;SDS011;12087;45.190;5.688;2024-02-15T02:34:38;6.95;;;4.82;;
23812;SDS011;12087;45.190;5.688;2024-02-15T02:40:02;9.50;;;4.78;;
23812;SDS011;12087;45.190;5.688;2024-02-15T02:45:26;8.57;;;4.90;;
23812;SDS011;12087;45.190;5.688;2024-02-15T02:50:48;7.80;;;4.68;;
23812;SDS011;12087;45.190;5.688;2024-02-15T02:56:10;10.05;;;4.72;;
23812;SDS011;12087;45.190;5.688;2024-02-15T03:01:34;6.95;;;5.03;;
23812;SDS011;12087;45.190;5.688;2024-02-15T03:06:57;7.00;;;4.82;;
23812;SDS011;12087;45.190;5.688;2024-02-15T03:12:19;6.35;;;3.65;;
23812;SDS011;12087;45.190;5.688;2024-02-15T03:17:43;11.05;;;4.72;;
23812;SDS011;12087;45.190;5.688;2024-02-15T03:23:08;6.30;;;4.35;;
23812;SDS011;12087;45.190;5.688;2024-02-15T03:28:31;7.60;;;4.35;;
23812;SDS011;12087;45.190;5.688;2024-02-15T03:33:55;8.00;;;4.65;;
23812;SDS011;12087;45.190;5.688;2024-02-15T03:39:17;7.45;;;4.57;;
23812;SDS011;12087;45.190;5.688;2024-02-15T03:44:39;7.47;;;4.78;;
23812;SDS011;12087;45.190;5.688;2024-02-15T03:50:04;10.07;;;5.35;;
23812;SDS011;12087;45.190;5.688;2024-02-15T03:55:28;7.18;;;4.22;;
23812;SDS011;12087;45.190;5.688;2024-02-15T04:00:50;9.63;;;4.82;;
23812;SDS011;12087;45.190;5.688;2024-02-15T04:06:14;7.75;;;4.93;;
23812;SDS011;12087;45.190;5.688;2024-02-15T04:11:36;7.07;;;4.10;;
23812;SDS011;12087;45.190;5.688;2024-02-15T04:16:59;5.55;;;3.40;;
23812;SDS011;12087;45.190;5.688;2024-02-15T04:22:23;7.15;;;3.50;;
23812;SDS011;12087;45.190;5.688;2024-02-15T04:27:45;7.15;;;4.55;;
23812;SDS011;12087;45.190;5.688;2024-02-15T04:33:08;7.00;;;4.07;;
23812;SDS011;12087;45.190;5.688;2024-02-15T04:38:32;5.93;;;3.90;;
23812;SDS011;12087;45.190;5.688;2024-02-15T04:43:54;9.80;;;4.13;;
23812;SDS011;12087;45.190;5.688;2024-02-15T04:49:17;7.03;;;4.35;;
23812;SDS011;12087;45.190;5.688;2024-02-15T04:54:40;7.05;;;3.72;;
23812;SDS011;12087;45.190;5.688;2024-02-15T05:00:03;6.50;;;3.67;;
23812;SDS011;12087;45.190;5.688;2024-02-15T05:05:31;8.02;;;4.15;;
23812;SDS011;12087;45.190;5.688;2024-02-15T05:10:55;5.80;;;3.47;;
23812;SDS011;12087;45.190;5.688;2024-02-15T05:16:18;7.13;;;3.80;;
23812;SDS011;12087;45.190;5.688;2024-02-15T05:21:42;5.15;;;3.75;;
23812;SDS011;12087;45.190;5.688;2024-02-15T05:27:07;6.05;;;4.40;;
23812;SDS011;12087;45.190;5.688;2024-02-15T05:32:29;6.13;;;4.10;;
23812;SDS011;12087;45.190;5.688;2024-02-15T05:37:52;5.90;;;3.40;;
23812;SDS011;12087;45.190;5.688;2024-02-15T05:43:15;5.30;;;3.33;;
23812;SDS011;12087;45.190;5.688;2024-02-15T05:48:38;6.90;;;3.90;;
23812;SDS011;12087;45.190;5.688;2024-02-15T05:54:00;9.35;;;3.30;;
23812;SDS011;12087;45.190;5.688;2024-02-15T05:59:24;6.45;;;3.13;;
23812;SDS011;12087;45.190;5.688;2024-02-15T06:04:46;5.65;;;4.13;;
23812;SDS011;12087;45.190;5.688;2024-02-15T06:10:08;9.85;;;4.35;;
23812;SDS011;12087;45.190;5.688;2024-02-15T06:15:32;8.10;;;4.68;;
23812;SDS011;12087;45.190;5.688;2024-02-15T06:20:54;8.65;;;5.07;;
23812;SDS011;12087;45.190;5.688;2024-02-15T06:26:18;7.28;;;5.07;;
23812;SDS011;12087;45.190;5.688;2024-02-15T06:31:42;7.75;;;4.78;;
23812;SDS011;12087;45.190;5.688;2024-02-15T06:37:34;5.63;;;4.32;;
23812;SDS011;12087;45.190;5.688;2024-02-15T06:43:14;6.70;;;4.00;;
23812;SDS011;12087;45.190;5.688;2024-02-15T06:48:41;7.70;;;4.03;;
23812;SDS011;12087;45.190;5.688;2024-02-15T06:54:04;5.95;;;3.70;;
23812;SDS011;12087;45.190;5.688;2024-02-15T06:59:27;5.65;;;4.05;;
23812;SDS011;12087;45.190;5.688;2024-02-15T07:04:50;7.53;;;4.10;;
23812;SDS011;12087;45.190;5.688;2024-02-15T07:10:12;5.38;;;3.78;;
23812;SDS011;12087;45.190;5.688;2024-02-15T07:15:36;6.78;;;3.88;;
23812;SDS011;12087;45.190;5.688;2024-02-15T07:21:00;10.45;;;4.93;;
23812;SDS011;12087;45.190;5.688;2024-02-15T07:26:24;12.60;;;7.15;;
23812;SDS011;12087;45.190;5.688;2024-02-15T07:31:46;16.95;;;7.57;;
23812;SDS011;12087;45.190;5.688;2024-02-15T07:37:10;11.13;;;6.72;;
23812;SDS011;12087;45.190;5.688;2024-02-15T07:42:32;15.52;;;7.15;;
23812;SDS011;12087;45.190;5.688;2024-02-15T07:47:55;13.48;;;7.07;;
23812;SDS011;12087;45.190;5.688;2024-02-15T07:53:19;13.75;;;8.68;;
23812;SDS011;12087;45.190;5.688;2024-02-15T07:58:41;10.90;;;7.18;;
23812;SDS011;12087;45.190;5.688;2024-02-15T08:04:06;12.20;;;8.25;;
23812;SDS011;12087;45.190;5.688;2024-02-15T08:09:30;14.90;;;8.25;;
23812;SDS011;12087;45.190;5.688;2024-02-15T08:14:52;21.75;;;9.43;;
23812;SDS011;12087;45.190;5.688;2024-02-15T08:20:15;14.52;;;8.70;;
23812;SDS011;12087;45.190;5.688;2024-02-15T08:25:45;20.93;;;13.10;;
23812;SDS011;12087;45.190;5.688;2024-02-15T08:31:08;17.67;;;11.35;;
23812;SDS011;12087;45.190;5.688;2024-02-15T08:36:31;18.55;;;9.30;;
23812;SDS011;12087;45.190;5.688;2024-02-15T08:41:54;24.40;;;9.10;;
23812;SDS011;12087;45.190;5.688;2024-02-15T08:47:17;13.98;;;8.50;;
23812;SDS011;12087;45.190;5.688;2024-02-15T08:52:39;15.70;;;7.82;;
23812;SDS011;12087;45.190;5.688;2024-02-15T08:58:04;20.67;;;7.60;;
23812;SDS011;12087;45.190;5.688;2024-02-15T09:03:26;16.85;;;6.70;;
23812;SDS011;12087;45.190;5.688;2024-02-15T09:08:48;14.05;;;6.15;;
23812;SDS011;12087;45.190;5.688;2024-02-15T09:14:11;7.80;;;5.18;;
23812;SDS011;12087;45.190;5.688;2024-02-15T09:19:34;8.10;;;5.13;;
23812;SDS011;12087;45.190;5.688;2024-02-15T09:24:56;10.35;;;4.30;;
23812;SDS011;12087;45.190;5.688;2024-02-15T09:30:22;11.27;;;4.45;;
23812;SDS011;12087;45.190;5.688;2024-02-15T09:35:48;9.20;;;4.40;;
23812;SDS011;12087;45.190;5.688;2024-02-15T09:41:10;11.00;;;4.95;;
23812;SDS011;12087;45.190;5.688;2024-02-15T09:46:34;17.70;;;4.50;;
23812;SDS011;12087;45.190;5.688;2024-02-15T09:51:58;7.10;;;4.03;;
23812;SDS011;12087;45.190;5.688;2024-02-15T09:57:21;11.60;;;4.82;;
23812;SDS011;12087;45.190;5.688;2024-02-15T10:02:46;9.32;;;4.95;;
23812;SDS011;12087;45.190;5.688;2024-02-15T10:08:09;14.07;;;4.40;;
23812;SDS011;12087;45.190;5.688;2024-02-15T10:13:31;8.13;;;4.30;;
23812;SDS011;12087;45.190;5.688;2024-02-15T10:18:55;7.10;;;4.40;;
23812;SDS011;12087;45.190;5.688;2024-02-15T10:24:31;7.63;;;4.82;;
23812;SDS011;12087;45.190;5.688;2024-02-15T10:29:53;14.80;;;5.28;;
23812;SDS011;12087;45.190;5.688;2024-02-15T10:35:37;12.48;;;5.57;;
23812;SDS011;12087;45.190;5.688;2024-02-15T10:41:02;12.35;;;5.40;;
23812;SDS011;12087;45.190;5.688;2024-02-15T10:46:26;11.57;;;5.82;;
23812;SDS011;12087;45.190;5.688;2024-02-15T10:51:52;29.33;;;20.42;;
23812;SDS011;12087;45.190;5.688;2024-02-15T10:57:19;43.03;;;36.63;;
23812;SDS011;12087;45.190;5.688;2024-02-15T11:02:45;14.63;;;11.25;;
23812;SDS011;12087;45.190;5.688;2024-02-15T11:08:17;19.00;;;12.00;;
23812;SDS011;12087;45.190;5.688;2024-02-15T11:13:39;41.35;;;25.67;;
23812;SDS011;12087;45.190;5.688;2024-02-15T11:19:02;46.00;;;40.20;;
23812;SDS011;12087;45.190;5.688;2024-02-15T11:24:26;15.88;;;9.38;;
23812;SDS011;12087;45.190;5.688;2024-02-15T11:29:49;11.85;;;7.00;;
23812;SDS011;12087;45.190;5.688;2024-02-15T11:35:14;9.15;;;4.95;;
23812;SDS011;12087;45.190;5.688;2024-02-15T11:46:27;11.65;;;5.05;;
23812;SDS011;12087;45.190;5.688;2024-02-15T11:51:52;9.82;;;4.90;;
23812;SDS011;12087;45.190;5.688;2024-02-15T11:57:19;10.20;;;4.32;;
23812;SDS011;12087;45.190;5.688;2024-02-15T12:02:58;16.38;;;5.30;;
23812;SDS011;12087;45.190;5.688;2024-02-15T12:08:38;16.23;;;4.75;;
23812;SDS011;12087;45.190;5.688;2024-02-15T12:14:19;9.33;;;4.57;;
23812;SDS011;12087;45.190;5.688;2024-02-15T12:20:00;11.48;;;4.85;;
23812;SDS011;12087;45.190;5.688;2024-02-15T12:25:27;9.00;;;4.68;;
23812;SDS011;12087;45.190;5.688;2024-02-15T12:30:55;12.55;;;4.93;;
23812;SDS011;12087;45.190;5.688;2024-02-15T12:36:18;6.13;;;4.05;;
23812;SDS011;12087;45.190;5.688;2024-02-15T12:41:42;7.20;;;5.15;;
23812;SDS011;12087;45.190;5.688;2024-02-15T12:47:11;11.70;;;4.70;;
23812;SDS011;12087;45.190;5.688;2024-02-15T12:52:39;18.83;;;4.87;;
23812;SDS011;12087;45.190;5.688;2024-02-15T12:58:04;13.02;;;5.07;;
23812;SDS011;12087;45.190;5.688;2024-02-15T13:03:30;17.83;;;5.40;;
23812;SDS011;12087;45.190;5.688;2024-02-15T13:08:52;10.25;;;5.18;;
23812;SDS011;12087;45.190;5.688;2024-02-15T13:14:14;9.07;;;4.85;;
23812;SDS011;12087;45.190;5.688;2024-02-15T13:19:38;9.70;;;5.25;;
23812;SDS011;12087;45.190;5.688;2024-02-15T13:25:07;11.27;;;4.70;;
23812;SDS011;12087;45.190;5.688;2024-02-15T13:30:30;8.77;;;4.57;;
23812;SDS011;12087;45.190;5.688;2024-02-15T13:35:53;11.93;;;4.65;;
23812;SDS011;12087;45.190;5.688;2024-02-15T13:41:16;6.47;;;3.95;;
23812;SDS011;12087;45.190;5.688;2024-02-15T13:46:38;6.60;;;4.40;;
23812;SDS011;12087;45.190;5.688;2024-02-15T13:52:04;11.18;;;3.85;;
23812;SDS011;12087;45.190;5.688;2024-02-15T13:57:27;7.28;;;4.30;;
23812;SDS011;12087;45.190;5.688;2024-02-15T14:02:49;12.10;;;4.13;;
23812;SDS011;12087;45.190;5.688;2024-02-15T14:08:13;10.25;;;3.90;;
23812;SDS011;12087;45.190;5.688;2024-02-15T14:13:35;7.82;;;3.80;;
23812;SDS011;12087;45.190;5.688;2024-02-15T14:18:57;8.20;;;3.80;;
23812;SDS011;12087;45.190;5.688;2024-02-15T14:24:21;6.93;;;3.70;;
23812;SDS011;12087;45.190;5.688;2024-02-15T14:29:43;9.20;;;3.67;;
23812;SDS011;12087;45.190;5.688;2024-02-15T14:35:25;6.20;;;3.38;;
23812;SDS011;12087;45.190;5.688;2024-02-15T14:40:50;7.22;;;3.40;;
23812;SDS011;12087;45.190;5.688;2024-02-15T14:46:13;8.95;;;3.85;;
23812;SDS011;12087;45.190;5.688;2024-02-15T14:51:36;7.63;;;3.28;;
23812;SDS011;12087;45.190;5.688;2024-02-15T14:57:01;8.48;;;3.60;;
23812;SDS011;12087;45.190;5.688;2024-02-15T15:02:23;8.70;;;4.30;;
23812;SDS011;12087;45.190;5.688;2024-02-15T15:07:45;9.07;;;3.88;;
23812;SDS011;12087;45.190;5.688;2024-02-15T15:13:26;8.82;;;4.45;;
23812;SDS011;12087;45.190;5.688;2024-02-15T15:18:48;19.42;;;4.55;;
23812;SDS011;12087;45.190;5.688;2024-02-15T15:24:12;10.02;;;3.38;;
23812;SDS011;12087;45.190;5.688;2024-02-15T15:29:35;13.50;;;3.75;;
23812;SDS011;12087;45.190;5.688;2024-02-15T15:34:58;9.38;;;4.03;;
23812;SDS011;12087;45.190;5.688;2024-02-15T15:40:20;10.52;;;4.10;;
23812;SDS011;12087;45.190;5.688;2024-02-15T15:45:44;5.95;;;4.03;;
23812;SDS011;12087;45.190;5.688;2024-02-15T15:51:06;7.38;;;3.85;;
23812;SDS011;12087;45.190;5.688;2024-02-15T15:56:31;10.55;;;5.10;;
23812;SDS011;12087;45.190;5.688;2024-02-15T16:01:55;9.60;;;4.05;;
23812;SDS011;12087;45.190;5.688;2024-02-15T16:07:17;7.63;;;3.90;;
23812;SDS011;12087;45.190;5.688;2024-02-15T16:12:40;8.63;;;3.78;;
23812;SDS011;12087;45.190;5.688;2024-02-15T16:18:06;10.52;;;5.00;;
23812;SDS011;12087;45.190;5.688;2024-02-15T16:23:28;12.68;;;4.28;;
23812;SDS011;12087;45.190;5.688;2024-02-15T16:28:50;8.07;;;3.95;;
23812;SDS011;12087;45.190;5.688;2024-02-15T16:34:14;11.50;;;5.10;;
23812;SDS011;12087;45.190;5.688;2024-02-15T16:39:36;13.95;;;5.25;;
23812;SDS011;12087;45.190;5.688;2024-02-15T16:44:58;10.20;;;4.47;;
23812;SDS011;12087;45.190;5.688;2024-02-15T16:50:22;10.52;;;4.50;;
23812;SDS011;12087;45.190;5.688;2024-02-15T16:55:44;12.27;;;4.97;;
23812;SDS011;12087;45.190;5.688;2024-02-15T17:01:06;16.10;;;8.43;;
23812;SDS011;12087;45.190;5.688;2024-02-15T17:06:30;12.70;;;6.25;;
23812;SDS011;12087;45.190;5.688;2024-02-15T17:11:52;10.75;;;6.43;;
23812;SDS011;12087;45.190;5.688;2024-02-15T17:17:16;53.80;;;25.70;;
23812;SDS011;12087;45.190;5.688;2024-02-15T17:22:40;63.90;;;34.95;;
23812;SDS011;12087;45.190;5.688;2024-02-15T17:28:04;35.42;;;19.80;;
23812;SDS011;12087;45.190;5.688;2024-02-15T17:33:26;35.17;;;18.17;;
23812;SDS011;12087;45.190;5.688;2024-02-15T17:38:51;19.02;;;10.90;;
23812;SDS011;12087;45.190;5.688;2024-02-15T17:44:14;17.35;;;9.90;;
23812;SDS011;12087;45.190;5.688;2024-02-15T17:49:36;27.10;;;10.77;;
23812;SDS011;12087;45.190;5.688;2024-02-15T17:55:00;16.90;;;7.15;;
23812;SDS011;12087;45.190;5.688;2024-02-15T18:00:25;16.40;;;8.13;;
23812;SDS011;12087;45.190;5.688;2024-02-15T18:05:49;11.23;;;7.00;;
23812;SDS011;12087;45.190;5.688;2024-02-15T18:11:13;16.55;;;4.90;;
23812;SDS011;12087;45.190;5.688;2024-02-15T18:16:35;15.02;;;4.68;;
23812;SDS011;12087;45.190;5.688;2024-02-15T18:22:03;12.85;;;4.43;;
23812;SDS011;12087;45.190;5.688;2024-02-15T18:27:27;9.80;;;4.80;;
23812;SDS011;12087;45.190;5.688;2024-02-15T18:32:49;20.20;;;13.93;;
23812;SDS011;12087;45.190;5.688;2024-02-15T18:38:13;10.80;;;7.30;;
23812;SDS011;12087;45.190;5.688;2024-02-15T18:43:38;14.32;;;7.35;;
23812;SDS011;12087;45.190;5.688;2024-02-15T18:49:00;19.38;;;8.13;;
23812;SDS011;12087;45.190;5.688;2024-02-15T18:54:22;11.10;;;6.43;;
23812;SDS011;12087;45.190;5.688;2024-02-15T18:59:46;12.02;;;6.20;;
23812;SDS011;12087;45.190;5.688;2024-02-15T19:05:08;18.48;;;7.40;;
23812;SDS011;12087;45.190;5.688;2024-02-15T19:10:35;13.88;;;6.97;;
23812;SDS011;12087;45.190;5.688;2024-02-15T19:15:58;18.17;;;7.38;;
23812;SDS011;12087;45.190;5.688;2024-02-15T19:21:21;15.20;;;7.03;;
23812;SDS011;12087;45.190;5.688;2024-02-15T19:26:43;11.40;;;7.65;;
23812;SDS011;12087;45.190;5.688;2024-02-15T19:32:07;14.00;;;7.07;;
23812;SDS011;12087;45.190;5.688;2024-02-15T19:37:29;14.68;;;6.53;;
23812;SDS011;12087;45.190;5.688;2024-02-15T19:42:53;8.95;;;6.78;;
23812;SDS011;12087;45.190;5.688;2024-02-15T19:48:17;12.75;;;6.15;;
23812;SDS011;12087;45.190;5.688;2024-02-15T19:53:39;13.57;;;5.72;;
23812;SDS011;12087;45.190;5.688;2024-02-15T19:59:01;15.65;;;6.85;;
23812;SDS011;12087;45.190;5.688;2024-02-15T20:04:25;12.00;;;6.57;;
23812;SDS011;12087;45.190;5.688;2024-02-15T20:09:48;12.73;;;7.05;;
23812;SDS011;12087;45.190;5.688;2024-02-15T20:15:10;16.83;;;6.88;;
23812;SDS011;12087;45.190;5.688;2024-02-15T20:20:33;10.02;;;7.03;;
23812;SDS011;12087;45.190;5.688;2024-02-15T20:25:56;20.80;;;8.75;;
23812;SDS011;12087;45.190;5.688;2024-02-15T20:31:19;14.13;;;9.02;;
23812;SDS011;12087;45.190;5.688;2024-02-15T20:36:43;13.95;;;8.43;;
23812;SDS011;12087;45.190;5.688;2024-02-15T20:42:05;17.85;;;8.95;;
23812;SDS011;12087;45.190;5.688;2024-02-15T20:47:28;18.75;;;9.00;;
23812;SDS011;12087;45.190;5.688;2024-02-15T20:52:53;18.55;;;8.52;;
23812;SDS011;12087;45.190;5.688;2024-02-15T20:58:15;16.48;;;9.07;;
23812;SDS011;12087;45.190;5.688;2024-02-15T21:03:38;15.93;;;9.77;;
23812;SDS011;12087;45.190;5.688;2024-02-15T21:09:04;18.58;;;9.98;;
23812;SDS011;12087;45.190;5.688;2024-02-15T21:14:33;25.40;;;11.30;;
23812;SDS011;12087;45.190;5.688;2024-02-15T21:19:55;18.77;;;10.70;;
23812;SDS011;12087;45.190;5.688;2024-02-15T21:25:19;20.58;;;10.30;;
23812;SDS011;12087;45.190;5.688;2024-02-15T21:30:41;17.67;;;10.27;;
23812;SDS011;12087;45.190;5.688;2024-02-15T21:36:03;15.68;;;8.73;;
23812;SDS011;12087;45.190;5.688;2024-02-15T21:41:28;13.48;;;8.18;;
23812;SDS011;12087;45.190;5.688;2024-02-15T21:46:50;11.65;;;7.68;;
23812;SDS011;12087;45.190;5.688;2024-02-15T21:52:12;10.98;;;7.20;;
23812;SDS011;12087;45.190;5.688;2024-02-15T21:57:36;17.50;;;7.72;;
23812;SDS011;12087;45.190;5.688;2024-02-15T22:02:58;13.50;;;7.20;;
23812;SDS011;12087;45.190;5.688;2024-02-15T22:08:22;14.40;;;7.53;;
23812;SDS011;12087;45.190;5.688;2024-02-15T22:13:46;11.55;;;7.95;;
23812;SDS011;12087;45.190;5.688;2024-02-15T22:19:08;14.77;;;8.15;;
23812;SDS011;12087;45.190;5.688;2024-02-15T22:24:30;12.93;;;7.85;;
23812;SDS011;12087;45.190;5.688;2024-02-15T22:29:54;13.63;;;7.72;;
23812;SDS011;12087;45.190;5.688;2024-02-15T22:35:16;14.80;;;8.43;;
23812;SDS011;12087;45.190;5.688;2024-02-15T22:40:38;15.48;;;9.52;;
23812;SDS011;12087;45.190;5.688;2024-02-15T22:46:04;17.38;;;9.65;;
23812;SDS011;12087;45.190;5.688;2024-02-15T22:51:27;18.45;;;10.50;;
23812;SDS011;12087;45.190;5.688;2024-02-15T22:56:49;15.43;;;8.38;;
23812;SDS011;12087;45.190;5.688;2024-02-15T23:02:13;15.98;;;9.30;;
23812;SDS011;12087;45.190;5.688;2024-02-15T23:07:37;14.93;;;8.43;;
23812;SDS011;12087;45.190;5.688;2024-02-15T23:12:59;11.07;;;6.95;;
23812;SDS011;12087;45.190;5.688;2024-02-15T23:18:24;9.40;;;5.90;;
23812;SDS011;12087;45.190;5.688;2024-02-15T23:23:47;6.25;;;4.40;;
23812;SDS011;12087;45.190;5.688;2024-02-15T23:29:09;7.35;;;4.70;;
23812;SDS011;12087;45.190;5.688;2024-02-15T23:34:33;9.27;;;6.18;;
23812;SDS011;12087;45.190;5.688;2024-02-15T23:39:55;13.27;;;6.13;;
23812;SDS011;12087;45.190;5.688;2024-02-15T23:45:35;18.30;;;8.07;;
23812;SDS011;12087;45.190;5.688;2024-02-15T23:50:58;18.40;;;9.05;;
23812;SDS011;12087;45.190;5.688;2024-02-15T23:56:21;19.65;;;9.77;;
